Time;durP1;ratioP1;P1;durP2;ratioP2;P2;SDS_P1;SDS_P2;PMS_P1;PMS_P2;Temp;Humidity;BMP_temperature;BMP_pressure;BME280_temperature;BME280_humidity;BME280_pressure;Samples;Min_cycle;Max_cycle;Signal;HPM_P1;HPM_P2
2022/01/16 00:00:56;;;;;;;51.80;21.95;;;;;;;;;;5095891;28;20074;-71
2022/01/16 00:06:06;;;;;;;57.05;22.90;;;;;;;;;;5098043;28;20123;-71
2022/01/16 00:08:32;;;;;;;61.10;22.65;;;;;;;;;;5096830;28;20084;-71
2022/01/16 00:10:59;;;;;;;66.82;23.70;;;;;;;;;;5112527;28;20035;-71
2022/01/16 00:13:26;;;;;;;63.13;23.75;;;;;;;;;;5093779;28;20040;-71
2022/01/16 00:15:52;;;;;;;65.82;24.17;;;;;;;;;;5095987;28;20040;-71
2022/01/16 00:18:24;;;;;;;64.47;24.60;;;;;;;;;;5114259;28;20031;-71
2022/01/16 00:20:51;;;;;;;62.20;24.73;;;;;;;;;;5112343;28;20039;-71
2022/01/16 00:23:25;;;;;;;67.65;25.60;;;2.80;99.90;;;;;;5093317;28;20051;-71
2022/01/16 00:25:52;;;;;;;61.78;24.38;;;3.10;99.90;;;;;;5094163;28;20099;-71
2022/01/16 00:28:18;;;;;;;68.35;25.95;;;;;;;;;;5076893;28;20035;-71
2022/01/16 00:30:44;;;;;;;76.05;26.80;;;;;;;;;;5093475;28;20126;-71
2022/01/16 00:33:10;;;;;;;72.82;27.65;;;;;;;;;;5112444;28;20046;-71
2022/01/16 00:35:37;;;;;;;78.78;28.70;;;;;;;;;;5113947;28;20039;-71
2022/01/16 00:38:04;;;;;;;70.72;29.42;;;2.30;99.90;;;;;;5094989;28;20093;-71
2022/01/16 00:40:30;;;;;;;83.47;29.85;;;;;;;;;;5113598;28;20044;-71
2022/01/16 00:42:57;;;;;;;77.60;27.35;;;;;;;;;;5097518;28;20039;-71
2022/01/16 00:45:23;;;;;;;81.03;28.30;;;3.00;99.90;;;;;;5093345;28;20055;-71
2022/01/16 00:47:49;;;;;;;80.28;28.08;;;;;;;;;;5106852;28;20035;-71
2022/01/16 00:50:15;;;;;;;79.03;29.13;;;;;;;;;;5076201;28;20040;-71
2022/01/16 00:52:41;;;;;;;80.97;26.45;;;;;;;;;;5105691;28;20042;-71
2022/01/16 00:55:09;;;;;;;72.55;27.13;;;3.50;99.90;;;;;;5113440;28;20126;-71
2022/01/16 00:57:35;;;;;;;80.72;30.15;;;;;;;;;;5103597;28;20107;-71
2022/01/16 01:00:01;;;;;;;76.97;28.08;;;;;;;;;;5113292;28;20039;-71
2022/01/16 01:02:27;;;;;;;88.53;30.17;;;;;;;;;;5104020;28;20110;-71
2022/01/16 01:04:53;;;;;;;85.85;31.33;;;;;;;;;;5092720;28;20119;-71
2022/01/16 01:07:19;;;;;;;89.43;31.00;;;;;;;;;;5079730;28;20055;-71
2022/01/16 01:09:45;;;;;;;86.25;28.60;;;;;;;;;;5111460;28;20050;-71
2022/01/16 01:12:23;;;;;;;81.63;28.33;;;2.90;99.90;;;;;;5107701;28;20509;-71
2022/01/16 01:15:10;;;;;;;87.07;29.80;;;;;;;;;;5076035;28;20098;-71
2022/01/16 01:17:46;;;;;;;87.95;28.95;;;3.00;99.90;;;;;;5098107;28;20129;-71
2022/01/16 01:20:15;;;;;;;92.30;29.33;;;3.60;99.90;;;;;;5112344;28;20076;-71
2022/01/16 01:22:41;;;;;;;92.25;31.25;;;;;;;;;;5104188;28;20476;-71
2022/01/16 01:25:09;;;;;;;87.50;29.33;;;;;;;;;;5092234;28;20055;-71
2022/01/16 01:27:35;;;;;;;96.93;31.92;;;;;;;;;;5089854;28;20042;-71
2022/01/16 01:30:07;;;;;;;89.63;28.58;;;;;;;;;;5112871;28;20118;-71
2022/01/16 01:32:37;;;;;;;89.10;31.30;;;3.20;99.90;;;;;;5108194;28;20120;-71
2022/01/16 01:35:09;;;;;;;98.65;31.23;;;3.20;99.90;;;;;;5092300;28;20075;-71
2022/01/16 01:37:37;;;;;;;82.22;29.38;;;3.00;99.90;;;;;;5103866;28;20031;-71
2022/01/16 01:40:08;;;;;;;95.10;30.73;;;3.20;99.90;;;;;;5092351;28;20047;-71
2022/01/16 01:42:42;;;;;;;93.47;31.17;;;;;;;;;;5077890;28;20101;-71
2022/01/16 01:53:23;;;;;;;104.18;31.05;;;;;;;;;;5100574;28;20127;-71
2022/01/16 01:55:49;;;;;;;111.68;33.47;;;;;;;;;;5112224;28;20078;-71
2022/01/16 01:58:16;;;;;;;93.47;30.38;;;;;;;;;;5109089;28;20108;-71
2022/01/16 02:00:42;;;;;;;100.30;30.92;;;3.00;99.90;;;;;;5112401;28;20108;-71
2022/01/16 02:05:35;;;;;;;103.20;30.98;;;;;;;;;;5092363;28;20473;-71
2022/01/16 02:08:03;;;;;;;109.68;33.33;;;3.10;99.90;;;;;;5078000;28;20032;-71
2022/01/16 02:10:30;;;;;;;100.80;32.13;;;;;;;;;;5092343;28;20032;-71
2022/01/16 02:13:01;;;;;;;116.97;31.92;;;3.10;99.90;;;;;;5094411;28;20112;-71
2022/01/16 02:32:12;;;;;;;118.50;33.47;;;3.10;99.90;;;;;;5094350;28;20066;-71
2022/01/16 02:34:42;;;;;;;119.95;33.00;;;;;;;;;;5101402;28;20392;-71
2022/01/16 02:37:11;;;;;;;105.95;31.75;;;3.20;99.90;;;;;;5105869;28;20050;-71
2022/01/16 02:39:41;;;;;;;114.50;32.75;;;3.10;99.90;;;;;;5108235;28;20048;-71
2022/01/16 02:42:10;;;;;;;118.70;33.35;;;3.30;99.90;;;;;;5098826;28;20079;-71
2022/01/16 02:45:00;;;;;;;118.50;33.03;;;;;;;;;;5104700;28;20043;-71
2022/01/16 02:47:26;;;;;;;119.28;31.48;;;;;;;;;;5106703;28;20051;-71
2022/01/16 02:49:53;;;;;;;121.05;34.05;;;;;;;;;;5108238;28;20039;-71
2022/01/16 02:52:21;;;;;;;126.97;34.10;;;3.30;99.90;;;;;;5110285;28;20369;-71
2022/01/16 02:54:49;;;;;;;119.78;33.38;;;3.20;99.90;;;;;;5106613;28;20081;-71
2022/01/16 02:57:17;;;;;;;117.95;34.13;;;3.20;99.90;;;;;;5115341;28;20047;-71
2022/01/16 02:59:49;;;;;;;122.38;34.75;;;4.00;99.90;;;;;;5105681;28;20043;-71
2022/01/16 03:02:16;;;;;;;119.85;34.72;;;3.40;99.90;;;;;;5098247;28;20089;-71
2022/01/16 03:04:42;;;;;;;138.30;34.67;;;;;;;;;;5105391;28;20044;-71
2022/01/16 03:07:09;;;;;;;117.85;31.88;;;;;;;;;;5077224;28;20509;-71
2022/01/16 03:10:08;;;;;;;134.50;34.72;;;;;;;;;;5087739;28;20476;-71
2022/01/16 03:12:34;;;;;;;117.55;34.45;;;;;;;;;;5095170;28;20084;-71
2022/01/16 03:15:00;;;;;;;141.35;35.30;;;;;;;;;;5106111;28;20082;-71
2022/01/16 03:17:41;;;;;;;127.05;35.95;;;;;;;;;;5114965;28;20075;-71
2022/01/16 03:22:53;;;;;;;137.13;36.55;;;3.80;99.90;;;;;;5115020;28;20126;-71
2022/01/16 03:25:18;;;;;;;146.32;37.47;;;3.30;99.90;;;;;;5102496;28;20127;-71
2022/01/16 03:27:44;;;;;;;119.75;34.35;;;;;;;;;;5093673;28;20047;-71
2022/01/16 03:30:12;;;;;;;141.07;36.75;;;;;;;;;;5104239;28;20036;-71
2022/01/16 03:32:38;;;;;;;150.45;37.72;;;;;;;;;;5115201;28;20050;-71
2022/01/16 03:35:04;;;;;;;134.07;36.63;;;3.80;99.90;;;;;;5106237;28;20040;-71
2022/01/16 03:37:30;;;;;;;148.48;36.63;;;;;;;;;;5094479;28;20068;-71
2022/01/16 03:39:56;;;;;;;139.07;36.47;;;;;;;;;;5105630;28;20075;-71
2022/01/16 03:42:27;;;;;;;150.05;38.75;;;;;;;;;;5093226;28;20477;-70
2022/01/16 03:44:53;;;;;;;148.82;39.88;;;;;;;;;;5081913;28;20032;-71
2022/01/16 03:47:19;;;;;;;140.13;37.95;;;;;;;;;;5101584;28;20032;-71
2022/01/16 03:49:45;;;;;;;146.43;40.10;;;;;;;;;;5104693;28;20036;-70
2022/01/16 03:52:11;;;;;;;128.10;37.55;;;;;;;;;;5077109;28;20516;-71
2022/01/16 03:54:37;;;;;;;168.77;41.22;;;;;;;;;;5079422;28;20040;-71
2022/01/16 03:57:03;;;;;;;149.82;41.13;;;;;;;;;;5114093;28;20040;-71
2022/01/16 03:59:29;;;;;;;139.55;38.35;;;;;;;;;;5100489;28;20047;-71
2022/01/16 04:01:56;;;;;;;158.15;40.47;;;;;;;;;;5114440;28;20042;-71
2022/01/16 04:04:22;;;;;;;152.75;39.50;;;;;;;;;;5114285;28;20042;-71
2022/01/16 04:06:48;;;;;;;152.05;39.38;;;;;;;;;;5095521;28;20071;-70
2022/01/16 04:09:14;;;;;;;154.90;40.50;;;;;;;;;;5105022;28;20035;-71
2022/01/16 04:11:48;;;;;;;160.85;41.25;;;;;;;;;;5097404;28;20097;-71
2022/01/16 04:14:23;;;;;;;131.13;39.45;;;;;;;;;;5093696;28;20096;-71
2022/01/16 04:16:49;;;;;;;133.90;39.20;;;4.50;99.90;;;;;;5110993;28;20048;-71
2022/01/16 04:19:15;;;;;;;150.40;40.97;;;;;;;;;;5102959;28;20403;-71
2022/01/16 04:21:41;;;;;;;146.85;39.80;;;;;;;;;;5092441;28;20064;-71
2022/01/16 04:24:07;;;;;;;149.23;41.22;;;;;;;;;;5113940;28;20048;-71
2022/01/16 04:26:34;;;;;;;149.60;39.72;;;;;;;;;;5103388;28;20064;-71
2022/01/16 04:29:00;;;;;;;138.13;41.55;;;;;;;;;;5104991;28;20039;-70
2022/01/16 04:31:26;;;;;;;153.30;41.67;;;;;;;;;;5104792;28;20043;-71
2022/01/16 04:33:52;;;;;;;124.88;37.47;;;;;;;;;;5113985;28;20043;-71
2022/01/16 04:36:18;;;;;;;147.70;38.60;;;4.00;99.90;;;;;;5103744;28;20040;-71
2022/01/16 04:38:49;;;;;;;135.98;39.75;;;;;;;;;;5093357;28;20148;-71
2022/01/16 04:44:01;;;;;;;135.02;40.33;;;;;;;;;;5093495;28;20122;-71
2022/01/16 04:46:29;;;;;;;134.30;39.75;;;4.20;99.90;;;;;;5094513;28;20176;-71
2022/01/16 04:48:56;;;;;;;143.13;37.45;;;3.30;99.90;;;;;;5093393;28;20040;-71
2022/01/16 04:51:23;;;;;;;145.25;39.53;;;4.30;99.90;;;;;;5100640;28;20035;-71
2022/01/16 04:53:49;;;;;;;141.70;39.42;;;;;;;;;;5098047;28;20040;-71
2022/01/16 04:56:15;;;;;;;153.05;41.75;;;;;;;;;;5098467;28;20038;-71
2022/01/16 04:58:42;;;;;;;132.48;39.95;;;4.10;99.90;;;;;;5113620;28;20451;-71
2022/01/16 05:01:08;;;;;;;131.52;38.65;;;;;;;;;;5109267;28;20070;-71
2022/01/16 05:03:34;;;;;;;137.13;39.78;;;;;;;;;;5092880;28;20038;-72
2022/01/16 05:06:00;;;;;;;125.55;38.60;;;;;;;;;;5089423;28;20027;-71
2022/01/16 05:08:28;;;;;;;149.63;40.95;;;;;;;;;;5075933;28;20032;-71
2022/01/16 05:10:55;;;;;;;140.82;40.95;;;;;;;;;;5093281;28;20480;-71
2022/01/16 05:16:34;;;;;;;133.88;40.28;;;4.40;99.90;;;;;;5113319;28;20051;-71
2022/01/16 05:19:00;;;;;;;151.32;41.92;;;4.10;99.90;;;;;;5113122;28;20138;-71
2022/01/16 05:21:26;;;;;;;148.50;42.00;;;;;;;;;;5108508;28;20130;-71
2022/01/16 05:23:53;;;;;;;147.40;41.05;;;;;;;;;;5092423;28;20052;-71
2022/01/16 05:26:26;;;;;;;155.68;42.45;;;;;;;;;;5078243;28;20044;-71
2022/01/16 05:28:52;;;;;;;131.75;40.25;;;;;;;;;;5092683;28;20032;-71
2022/01/16 05:31:19;;;;;;;160.77;42.95;;;;;;;;;;5093571;28;20040;-71
2022/01/16 05:33:45;;;;;;;152.65;42.13;;;;;;;;;;5112663;28;20039;-71
2022/01/16 05:36:11;;;;;;;139.68;43.13;;;;;;;;;;5091753;28;20105;-71
2022/01/16 05:38:37;;;;;;;144.65;41.63;;;;;;;;;;5112362;28;20036;-71
2022/01/16 05:41:03;;;;;;;145.25;39.95;;;;;;;;;;5112772;28;20058;-71
2022/01/16 05:43:29;;;;;;;143.10;43.90;;;;;;;;;;5095291;28;20484;-71
2022/01/16 05:45:55;;;;;;;129.82;38.17;;;;;;;;;;5092379;28;20032;-72
2022/01/16 05:48:21;;;;;;;134.20;39.80;;;;;;;;;;5107872;28;20039;-71
2022/01/16 05:50:47;;;;;;;128.88;41.63;;;;;;;;;;5095408;28;20091;-71
2022/01/16 05:53:14;;;;;;;132.57;39.72;;;;;;;;;;5099859;28;20040;-72
2022/01/16 05:55:41;;;;;;;133.10;42.05;;;;;;;;;;5112498;28;20546;-74
2022/01/16 05:58:08;;;;;;;125.78;39.30;;;4.50;99.90;;;;;;5105533;28;20047;-71
2022/01/16 06:00:36;;;;;;;134.55;40.30;;;3.70;99.90;;;;;;5095304;28;20047;-71
2022/01/16 06:03:02;;;;;;;138.88;42.13;;;;;;;;;;5110802;28;20105;-71
2022/01/16 06:05:28;;;;;;;126.63;39.80;;;;;;;;;;5111444;28;20038;-71
2022/01/16 06:07:58;;;;;;;127.93;39.95;;;;;;;;;;5105811;28;20042;-71
2022/01/16 06:10:25;;;;;;;129.32;40.72;;;;;;;;;;5116884;28;20100;-71
2022/01/16 06:12:54;;;;;;;105.60;38.17;;;;;;;;;;5115168;28;20046;-71
2022/01/16 06:15:21;;;;;;;118.50;39.30;;;4.40;99.90;;;;;;5116803;28;20040;-71
2022/01/16 06:17:47;;;;;;;113.05;39.70;;;;;;;;;;5108867;28;20048;-71
2022/01/16 06:20:15;;;;;;;115.40;40.25;;;;;;;;;;5096087;28;20488;-70
2022/01/16 06:22:42;;;;;;;121.80;40.42;;;4.10;99.90;;;;;;5084871;28;20126;-70
2022/01/16 06:25:08;;;;;;;116.10;40.17;;;;;;;;;;5099090;28;20411;-71
2022/01/16 06:27:35;;;;;;;118.80;39.47;;;4.40;99.90;;;;;;5114912;28;20479;-70
2022/01/16 06:30:01;;;;;;;110.50;39.17;;;;;;;;;;5099048;28;20047;-71
2022/01/16 06:32:27;;;;;;;113.60;39.50;;;;;;;;;;5112867;28;20036;-71
2022/01/16 06:34:54;;;;;;;119.40;40.63;;;;;;;;;;5100911;28;20156;-71
2022/01/16 06:37:20;;;;;;;104.85;39.75;;;;;;;;;;5105804;28;20032;-71
2022/01/16 06:39:46;;;;;;;116.80;39.60;;;;;;;;;;5090285;28;20079;-71
2022/01/16 06:42:12;;;;;;;97.30;38.75;;;;;;;;;;5114611;28;20388;-71
2022/01/16 06:44:38;;;;;;;97.60;37.90;;;;;;;;;;5115003;28;20372;-71
2022/01/16 06:47:04;;;;;;;93.45;37.78;;;4.00;99.90;;;;;;5079319;28;20447;-71
2022/01/16 06:49:30;;;;;;;83.88;35.90;;;;;;;;;;5112798;28;20043;-71
2022/01/16 06:51:56;;;;;;;77.72;33.80;;;;;;;;;;5089684;28;20419;-71
2022/01/16 06:54:22;;;;;;;77.80;33.33;;;4.50;99.90;;;;;;5111818;28;20072;-71
2022/01/16 06:56:48;;;;;;;67.32;32.20;;;;;;;;;;5081013;28;20395;-71
2022/01/16 06:59:14;;;;;;;82.85;33.70;;;;;;;;;;5081588;28;20123;-72
2022/01/16 07:01:40;;;;;;;67.70;30.00;;;;;;;;;;5078225;28;20036;-71
2022/01/16 07:04:06;;;;;;;69.90;31.45;;;;;;;;;;5080156;28;20032;-71
2022/01/16 07:06:32;;;;;;;71.18;29.98;;;;;;;;;;5095079;28;20039;-71
2022/01/16 07:08:58;;;;;;;64.82;28.63;;;;;;;;;;5082358;27;20472;-71
2022/01/16 07:11:24;;;;;;;64.10;28.67;;;;;;;;;;5094940;28;20488;-71
2022/01/16 07:13:50;;;;;;;57.10;28.20;;;;;;;;;;5095664;28;20392;-71
2022/01/16 07:16:16;;;;;;;60.40;29.25;;;;;;;;;;5094789;27;20384;-71
2022/01/16 07:18:42;;;;;;;56.00;27.45;;;;;;;;;;5084200;28;20495;-71
2022/01/16 07:21:13;;;;;;;58.53;26.55;;;5.50;99.90;;;;;;5095983;27;20043;-71
2022/01/16 07:23:46;;;;;;;58.92;28.00;;;5.30;99.90;;;;;;5094783;28;20067;-72
2022/01/16 07:26:16;;;;;;;52.15;24.27;;;5.20;99.90;;;;;;5098235;28;20400;-71
2022/01/16 07:28:42;;;;;;;57.65;25.80;;;;;;;;;;5100850;27;20407;-71
2022/01/16 07:31:08;;;;;;;59.85;25.13;;;;;;;;;;5094551;28;20093;-71
2022/01/16 07:33:34;;;;;;;47.20;24.42;;;;;;;;;;5085177;28;20068;-71
2022/01/16 07:36:00;;;;;;;52.95;25.83;;;;;;;;;;5077660;28;20449;-71
2022/01/16 07:38:26;;;;;;;53.88;24.33;;;;;;;;;;5099189;28;20040;-69
2022/01/16 07:40:53;;;;;;;51.28;24.23;;;;;;;;;;5098596;28;20042;-69
2022/01/16 07:43:19;;;;;;;52.50;23.63;;;;;;;;;;5102992;27;20047;-69
2022/01/16 07:45:45;;;;;;;58.25;23.80;;;;;;;;;;5091511;28;20044;-69
2022/01/16 07:48:11;;;;;;;47.05;24.38;;;;;;;;;;5085346;28;20042;-69
2022/01/16 07:50:38;;;;;;;47.22;23.55;;;;;;;;;;5094387;28;20031;-69
2022/01/16 07:53:04;;;;;;;44.30;23.13;;;;;;;;;;5094443;28;20509;-69
2022/01/16 07:55:30;;;;;;;56.65;23.27;;;;;;;;;;5109027;28;20119;-69
2022/01/16 07:57:57;;;;;;;50.70;23.05;;;;;;;;;;5082371;28;20035;-69
2022/01/16 08:00:23;;;;;;;48.83;23.35;;;5.30;99.90;;;;;;5101217;28;20047;-69
2022/01/16 08:02:50;;;;;;;52.42;23.10;;;5.40;99.90;;;;;;5101750;27;20075;-69
2022/01/16 08:05:19;;;;;;;51.90;24.00;;;5.40;99.90;;;;;;5093244;27;20042;-69
2022/01/16 08:07:45;;;;;;;50.17;23.25;;;;;;;;;;5094185;28;20119;-71
2022/01/16 08:10:11;;;;;;;53.40;24.02;;;5.60;99.90;;;;;;5099212;27;20127;-71
2022/01/16 08:12:38;;;;;;;48.05;24.23;;;5.60;99.90;;;;;;5099082;27;20035;-71
2022/01/16 08:15:05;;;;;;;55.60;24.10;;;5.20;99.90;;;;;;5110833;28;20067;-71
2022/01/16 08:17:31;;;;;;;48.28;23.55;;;;;;;;;;5094656;28;20117;-71
2022/01/16 08:19:58;;;;;;;51.60;25.00;;;;;;;;;;5086760;28;20391;-71
2022/01/16 08:22:24;;;;;;;58.92;23.80;;;;;;;;;;5111570;28;20036;-71
2022/01/16 08:24:50;;;;;;;52.92;24.05;;;;;;;;;;5101938;28;20085;-71
2022/01/16 08:27:16;;;;;;;57.53;24.10;;;;;;;;;;5092527;28;20040;-71
2022/01/16 08:29:43;;;;;;;53.45;23.25;;;;;;;;;;5100384;28;20039;-71
2022/01/16 08:32:09;;;;;;;58.08;24.00;;;;;;;;;;5114050;28;20040;-71
2022/01/16 08:34:35;;;;;;;50.88;23.90;;;;;;;;;;5106823;28;20108;-71
2022/01/16 08:37:01;;;;;;;53.60;24.88;;;;;;;;;;5076695;28;20055;-71
2022/01/16 08:39:27;;;;;;;55.33;23.92;;;;;;;;;;5106875;28;20040;-72
2022/01/16 08:41:53;;;;;;;52.63;24.45;;;5.10;99.90;;;;;;5093039;28;20044;-71
2022/01/16 08:44:19;;;;;;;54.70;24.67;;;;;;;;;;5088164;28;20028;-69
2022/01/16 08:46:46;;;;;;;61.75;24.02;;;5.90;99.90;;;;;;5106794;28;20043;-69
2022/01/16 08:49:12;;;;;;;56.78;24.35;;;;;;;;;;5099846;28;20047;-69
2022/01/16 08:51:38;;;;;;;54.58;24.95;;;;;;;;;;5076236;28;20044;-71
2022/01/16 08:54:04;;;;;;;55.65;26.05;;;6.20;99.90;;;;;;5104367;28;20039;-72
2022/01/16 08:56:30;;;;;;;51.90;26.20;;;;;;;;;;5112979;28;20557;-72
2022/01/16 08:58:56;;;;;;;60.42;27.20;;;;;;;;;;5109957;28;20422;-71
2022/01/16 09:01:23;;;;;;;55.60;25.20;;;;;;;;;;5110543;28;20039;-71
2022/01/16 09:03:49;;;;;;;61.35;27.50;;;;;;;;;;5086263;28;20031;-71
2022/01/16 09:06:16;;;;;;;61.40;25.48;;;6.20;99.90;;;;;;5094542;28;20192;-71
2022/01/16 09:08:42;;;;;;;59.90;25.58;;;;;;;;;;5074599;28;20039;-71
2022/01/16 09:11:08;;;;;;;62.00;25.98;;;;;;;;;;5092757;28;20570;-71
2022/01/16 09:13:35;;;;;;;57.75;24.83;;;;;;;;;;5093992;28;20044;-71
2022/01/16 09:16:01;;;;;;;46.50;22.27;;;;;;;;;;5092852;28;20039;-73
2022/01/16 09:18:27;;;;;;;55.88;23.10;;;;;;;;;;5092559;28;20047;-73
2022/01/16 09:20:53;;;;;;;53.25;22.23;;;6.50;99.90;;;;;;5092523;28;20467;-73
2022/01/16 09:23:20;;;;;;;54.45;21.67;;;6.20;99.90;;;;;;5092429;28;20044;-73
2022/01/16 09:25:46;;;;;;;56.25;22.80;;;;;;;;;;5092276;28;20516;-73
2022/01/16 09:28:12;;;;;;;53.15;22.13;;;;;;;;;;5075619;28;20035;-73
2022/01/16 09:30:39;;;;;;;47.45;20.27;;;;;;;;;;5092461;28;20040;-72
2022/01/16 09:33:05;;;;;;;55.78;20.77;;;;;;;;;;5092605;28;20054;-72
2022/01/16 09:35:33;;;;;;;53.53;19.52;;;;;;;;;;5092244;28;20040;-72
2022/01/16 09:38:00;;;;;;;45.75;18.42;;;;;;;;;;5075768;28;20044;-72
2022/01/16 09:40:26;;;;;;;51.97;19.63;;;;;;;;;;5092740;28;20035;-73
2022/01/16 09:42:52;;;;;;;48.20;18.65;;;;;;;;;;5099789;28;20044;-73
2022/01/16 09:45:18;;;;;;;39.53;17.30;;;;;;;;;;5107736;28;20387;-74
2022/01/16 09:47:46;;;;;;;47.65;18.27;;;6.60;99.90;;;;;;5077905;28;20044;-73
2022/01/16 09:50:21;;;;;;;46.50;18.35;;;6.40;99.90;;;;;;5093456;28;20086;-73
2022/01/16 09:52:47;;;;;;;46.97;17.88;;;;;;;;;;5094086;28;20040;-73
2022/01/16 09:55:14;;;;;;;50.85;18.25;;;;;;;;;;5092049;28;20080;-72
2022/01/16 09:57:40;;;;;;;47.72;17.42;;;;;;;;;;5099890;28;20039;-72
2022/01/16 10:00:17;;;;;;;38.38;17.13;;;6.70;99.90;;;;;;5104441;28;20364;-72
2022/01/16 10:02:43;;;;;;;45.60;17.23;;;;;;;;;;5096990;28;20036;-72
2022/01/16 10:05:37;;;;;;;48.53;17.17;;;6.80;99.90;;;;;;5103043;28;20035;-71
2022/01/16 10:08:08;;;;;;;44.95;15.57;;;6.80;99.90;;;;;;5103678;28;20044;-73
2022/01/16 10:10:42;;;;;;;48.63;17.00;;;6.70;99.90;;;;;;5108777;28;20032;-73
2022/01/16 10:13:20;;;;;;;47.60;16.60;;;;;;;;;;5094180;28;20040;-73
2022/01/16 10:15:56;;;;;;;42.40;15.05;;;6.90;99.90;;;;;;5112173;28;20089;-73
2022/01/16 10:18:42;;;;;;;37.90;15.30;;;6.70;99.90;;;;;;5098947;28;20043;-73
2022/01/16 10:21:09;;;;;;;32.85;13.27;;;6.70;99.90;;;;;;5094834;28;20043;-71
2022/01/16 10:23:41;;;;;;;32.45;13.98;;;6.80;99.90;;;;;;5099451;28;20044;-71
2022/01/16 10:26:21;;;;;;;30.80;13.13;;;6.70;99.90;;;;;;5093151;28;20040;-72
2022/01/16 10:28:47;;;;;;;43.13;12.95;;;;;;;;;;5101659;28;20066;-71
2022/01/16 10:31:20;;;;;;;32.30;12.95;;;6.80;99.90;;;;;;5095331;28;20036;-71
2022/01/16 10:33:46;;;;;;;35.25;12.90;;;;;;;;;;5110727;28;20039;-71
2022/01/16 10:36:12;;;;;;;43.42;13.32;;;;;;;;;;5106978;28;20557;-71
2022/01/16 10:38:38;;;;;;;35.95;11.57;;;;;;;;;;5111009;28;20067;-71
2022/01/16 10:41:04;;;;;;;33.03;10.77;;;;;;;;;;5112008;28;20039;-71
2022/01/16 10:43:41;;;;;;;27.75;11.60;;;6.10;99.90;;;;;;5094185;28;20036;-71
2022/01/16 10:46:09;;;;;;;35.05;11.68;;;7.20;99.90;;;;;;5099459;28;20115;-72
2022/01/16 10:48:35;;;;;;;30.25;10.95;;;;;;;;;;5094188;28;20048;-72
2022/01/16 10:51:01;;;;;;;29.65;10.20;;;;;;;;;;5091486;28;20484;-71
2022/01/16 10:53:32;;;;;;;28.27;10.05;;;7.00;99.90;;;;;;5111044;28;20053;-71
2022/01/16 10:56:03;;;;;;;25.17;8.98;;;7.00;99.90;;;;;;5109736;28;20044;-71
2022/01/16 10:58:41;;;;;;;28.70;9.82;;;7.10;99.90;;;;;;5094454;28;20134;-71
2022/01/16 11:01:16;;;;;;;27.70;9.38;;;6.30;99.90;;;;;;5098447;28;20456;-71
2022/01/16 11:03:47;;;;;;;23.80;9.35;;;6.80;99.90;;;;;;5095085;28;20074;-71
2022/01/16 11:06:14;;;;;;;29.75;9.57;;;6.80;99.90;;;;;;5115327;28;20044;-71
2022/01/16 11:08:43;;;;;;;27.33;10.30;;;;;;;;;;5081619;28;20044;-71
2022/01/16 11:11:09;;;;;;;30.63;9.30;;;;;;;;;;5094920;28;20039;-71
2022/01/16 11:13:36;;;;;;;32.72;10.68;;;7.00;99.90;;;;;;5098459;28;20408;-71
2022/01/16 11:16:04;;;;;;;34.13;9.45;;;;;;;;;;5094670;28;20048;-71
2022/01/16 11:18:35;;;;;;;30.02;9.63;;;6.70;99.90;;;;;;5108213;28;20113;-71
2022/01/16 11:26:36;;;;;;;24.15;8.77;;;;;;;;;;5069364;28;20055;-71
2022/01/16 11:29:02;;;;;;;25.73;8.27;;;;;;;;;;5101754;28;20100;-71
2022/01/16 11:31:29;;;;;;;27.33;8.73;;;6.60;99.90;;;;;;5100358;28;20051;-71
2022/01/16 11:33:55;;;;;;;22.90;8.90;;;;;;;;;;5102611;28;20119;-71
2022/01/16 11:36:27;;;;;;;25.05;8.75;;;7.20;99.90;;;;;;5096729;28;20047;-71
2022/01/16 11:39:02;;;;;;;16.90;8.65;;;7.10;99.90;;;;;;5108877;28;20391;-71
2022/01/16 11:41:38;;;;;;;21.05;8.70;;;7.20;99.90;;;;;;5112866;28;20043;-71
2022/01/16 11:44:05;;;;;;;26.70;9.38;;;7.30;99.90;;;;;;5109316;28;20047;-71
2022/01/16 11:46:34;;;;;;;21.05;9.15;;;6.60;99.90;;;;;;5114593;28;20109;-70
2022/01/16 11:49:01;;;;;;;26.45;9.13;;;;;;;;;;5100267;28;20043;-70
2022/01/16 11:51:34;;;;;;;40.08;9.95;;;7.30;99.90;;;;;;5077396;28;20506;-71
2022/01/16 11:54:06;;;;;;;27.38;9.15;;;;;;;;;;5103961;28;20115;-71
2022/01/16 11:56:40;;;;;;;30.65;10.18;;;7.30;99.90;;;;;;5094175;28;20117;-71
2022/01/16 11:59:12;;;;;;;29.30;9.60;;;;;;;;;;5107600;28;20104;-70
2022/01/16 12:01:42;;;;;;;27.58;9.70;;;;;;;;;;5095581;28;20470;-70
2022/01/16 12:04:28;;;;;;;21.20;8.88;;;;;;;;;;5106200;28;20509;-70
2022/01/16 12:06:54;;;;;;;29.45;8.95;;;;;;;;;;5114026;28;20093;-70
2022/01/16 12:09:57;;;;;;;26.30;9.00;;;;;;;;;;5076804;28;20043;-70
2022/01/16 12:12:23;;;;;;;26.73;9.50;;;;;;;;;;5100755;28;20407;-70
2022/01/16 12:15:04;;;;;;;27.48;9.65;;;;;;;;;;5096765;28;20074;-71
2022/01/16 12:17:30;;;;;;;25.33;8.82;;;;;;;;;;5095011;28;20044;-70
2022/01/16 12:20:21;;;;;;;25.90;9.70;;;;;;;;;;5103064;28;20036;-70
2022/01/16 12:22:56;;;;;;;25.65;9.73;;;7.50;99.90;;;;;;5085650;28;20064;-70
2022/01/16 12:25:26;;;;;;;19.38;8.85;;;;;;;;;;5076571;28;20159;-70
2022/01/16 12:27:53;;;;;;;30.48;9.65;;;7.70;99.90;;;;;;5096494;28;20039;-70
2022/01/16 12:30:35;;;;;;;30.70;9.20;;;;;;;;;;5113854;28;20046;-70
2022/01/16 12:33:16;;;;;;;22.02;8.70;;;7.30;99.90;;;;;;5103419;28;20093;-70
2022/01/16 12:35:44;;;;;;;22.90;8.68;;;;;;;;;;5113841;28;20500;-70
2022/01/16 12:38:18;;;;;;;27.02;8.98;;;;;;;;;;5109989;28;20121;-70
2022/01/16 12:40:51;;;;;;;18.05;8.30;;;7.50;99.90;;;;;;5111972;28;20043;-70
2022/01/16 12:43:26;;;;;;;23.67;8.50;;;;;;;;;;5108746;28;20046;-70
2022/01/16 12:45:52;;;;;;;20.85;8.40;;;;;;;;;;5076576;28;20527;-70
2022/01/16 12:48:18;;;;;;;24.90;8.95;;;;;;;;;;5080577;28;20032;-70
2022/01/16 12:50:44;;;;;;;23.90;9.05;;;;;;;;;;5112357;28;20043;-70
2022/01/16 12:53:11;;;;;;;23.80;8.32;;;;;;;;;;5108187;28;20075;-70
2022/01/16 12:55:37;;;;;;;24.95;10.45;;;;;;;;;;5093205;28;20077;-70
2022/01/16 12:58:21;;;;;;;20.23;7.72;;;7.60;99.90;;;;;;5076030;28;20047;-70
2022/01/16 13:01:17;;;;;;;27.67;10.50;;;7.30;99.90;;;;;;5094262;28;20049;-69
2022/01/16 13:03:44;;;;;;;27.00;9.18;;;;;;;;;;5068245;28;20482;-71
2022/01/16 13:06:29;;;;;;;22.23;9.75;;;7.50;99.90;;;;;;5112866;28;20047;-71
2022/01/16 13:08:55;;;;;;;31.30;8.65;;;;;;;;;;5094859;28;20079;-71
2022/01/16 13:11:23;;;;;;;27.30;9.32;;;7.40;99.90;;;;;;5112920;28;20046;-71
2022/01/16 13:13:49;;;;;;;25.95;8.90;;;;;;;;;;5095915;28;20044;-71
2022/01/16 13:16:22;;;;;;;27.05;8.43;;;7.50;99.90;;;;;;5112296;28;20376;-71
2022/01/16 13:19:10;;;;;;;25.98;8.68;;;7.50;99.90;;;;;;5112799;28;20036;-71
2022/01/16 13:22:12;;;;;;;27.58;9.80;;;7.60;99.90;;;;;;5095774;28;20070;-71
2022/01/16 13:24:49;;;;;;;29.42;9.38;;;;;;;;;;5092282;28;20399;-71
2022/01/16 13:27:16;;;;;;;22.75;9.80;;;;;;;;;;5112943;28;20047;-71
2022/01/16 13:29:44;;;;;;;25.05;9.20;;;7.50;99.90;;;;;;5112806;28;20035;-71
2022/01/16 13:32:13;;;;;;;39.03;10.23;;;7.50;99.90;;;;;;5113463;28;20051;-71
2022/01/16 13:34:41;;;;;;;24.23;9.63;;;7.70;99.90;;;;;;5112842;28;20046;-71
2022/01/16 13:37:13;;;;;;;31.23;10.35;;;7.50;99.90;;;;;;5112983;28;20079;-70
2022/01/16 13:39:48;;;;;;;28.60;10.35;;;7.50;99.90;;;;;;5112687;28;20055;-71
2022/01/16 13:42:22;;;;;;;22.58;9.93;;;7.50;99.90;;;;;;5112784;28;20039;-71
2022/01/16 13:44:49;;;;;;;31.38;9.07;;;;;;;;;;5112552;28;20035;-70
2022/01/16 13:47:19;;;;;;;23.52;10.25;;;7.60;99.90;;;;;;5112633;28;20395;-71
2022/01/16 13:49:51;;;;;;;27.60;10.38;;;7.30;99.90;;;;;;5112964;28;20027;-70
2022/01/16 13:52:27;;;;;;;18.43;9.40;;;7.30;99.90;;;;;;5112426;28;20035;-71
2022/01/16 13:55:05;;;;;;;22.95;9.75;;;7.30;99.90;;;;;;5112504;28;20051;-71
2022/01/16 13:57:33;;;;;;;30.02;9.30;;;7.30;99.90;;;;;;5112489;28;20052;-70
2022/01/16 13:59:59;;;;;;;29.48;11.43;;;7.10;99.90;;;;;;5095516;28;20081;-70
2022/01/16 14:02:26;;;;;;;37.80;11.82;;;;;;;;;;5112528;28;20047;-70
2022/01/16 14:04:52;;;;;;;30.80;11.77;;;;;;;;;;5112703;28;20081;-70
2022/01/16 14:07:25;;;;;;;39.97;13.05;;;7.80;99.90;;;;;;5112723;28;20039;-70
2022/01/16 14:09:52;;;;;;;27.95;11.43;;;6.50;99.90;;;;;;5112475;28;20501;-70
2022/01/16 14:12:19;;;;;;;28.75;12.00;;;;;;;;;;5112491;28;20054;-70
2022/01/16 14:14:45;;;;;;;30.92;11.95;;;;;;;;;;5112623;28;20062;-70
2022/01/16 14:22:20;;;;;;;30.40;11.65;;;7.20;99.90;;;;;;5112090;28;20045;-70
2022/01/16 14:24:49;;;;;;;30.27;12.55;;;7.20;99.90;;;;;;5112105;28;20545;-70
2022/01/16 14:27:21;;;;;;;31.05;12.40;;;6.70;99.90;;;;;;5096963;28;20042;-70
2022/01/16 14:29:49;;;;;;;25.88;11.00;;;7.00;99.90;;;;;;5116325;28;20042;-70
2022/01/16 14:32:16;;;;;;;31.20;13.35;;;7.30;99.90;;;;;;5116072;28;20079;-70
2022/01/16 14:34:43;;;;;;;37.22;11.38;;;7.20;99.90;;;;;;5115973;28;20051;-70